Time;durP1;ratioP1;P1;durP2;ratioP2;P2;SDS_P1;SDS_P2;PMS_P1;PMS_P2;Temp;Humidity;BMP_temperature;BMP_pressure;BME280_temperature;BME280_humidity;BME280_pressure;Samples;Min_cycle;Max_cycle;Signal;HPM_P1;HPM_P2
2022/09/30 00:01:02;;;;;;;0.90;0.90;;;;;;;;;;5071153;28;20484;-67
2022/09/30 00:03:52;;;;;;;1.65;1.23;;;;;;;;;;5044108;28;20904;-67
2022/09/30 00:06:23;;;;;;;1.13;1.00;;;;;;;;;;5028873;28;20445;-67
2022/09/30 00:08:50;;;;;;;2.00;1.13;;;;;;;;;;5029209;28;20517;-67
2022/09/30 00:11:18;;;;;;;1.05;1.05;;;;;;;;;;5028777;28;20427;-67
2022/09/30 00:13:49;;;;;;;1.33;1.23;;;;;;;;;;5028218;28;20948;-66
2022/09/30 00:16:17;;;;;;;1.20;0.93;;;;;;;;;;5028614;28;20497;-67
2022/09/30 00:18:57;;;;;;;1.33;1.33;;;;;;;;;;5028731;28;20461;-67
2022/09/30 00:21:24;;;;;;;0.77;0.77;;;;;;;;;;5034005;28;20433;-67
2022/09/30 00:23:51;;;;;;;1.20;1.10;;;;;;;;;;5050050;28;20429;-66
2022/09/30 00:26:23;;;;;;;0.87;0.87;;;;;;;;;;5050807;28;20456;-67
2022/09/30 00:28:57;;;;;;;0.88;0.88;;;;;;;;;;5051066;28;20441;-67
2022/09/30 00:31:28;;;;;;;1.13;1.08;;;;;;;;;;5050868;28;20469;-67
2022/09/30 00:34:10;;;;;;;1.00;1.00;;;;;;;;;;5050555;28;20502;-67
2022/09/30 00:36:45;;;;;;;2.35;0.90;;;;;;;;;;5050868;28;20436;-67
2022/09/30 00:39:17;;;;;;;2.67;1.30;;;;;;;;;;5057290;28;20423;-67
2022/09/30 00:41:45;;;;;;;1.73;1.63;;;;;;;;;;5071312;28;20424;-67
2022/09/30 00:44:31;;;;;;;1.20;1.20;;;;;;;;;;5070765;28;20430;-67
2022/09/30 00:46:58;;;;;;;1.90;1.30;;;;;;;;;;5070489;28;20503;-67
2022/09/30 00:49:29;;;;;;;0.45;0.45;;;;;;;;;;5070747;28;20520;-67
2022/09/30 00:51:57;;;;;;;0.60;0.60;;;;;;;;;;5070813;28;20473;-66
2022/09/30 00:54:27;;;;;;;0.70;0.70;;;;;;;;;;5070113;28;20435;-67
2022/09/30 00:57:00;;;;;;;2.70;1.20;;;;;;;;;;5070527;28;20434;-67
2022/09/30 00:59:42;;;;;;;0.98;0.98;;;3.80;99.90;;;;;;5063334;28;20506;-67
2022/09/30 01:02:09;;;;;;;2.10;0.97;;;2.90;99.90;;;;;;5068499;28;20432;-67
2022/09/30 01:04:37;;;;;;;1.38;1.13;;;3.00;99.90;;;;;;5070289;28;20431;-67
2022/09/30 01:07:05;;;;;;;0.80;0.80;;;3.00;99.90;;;;;;5070570;28;20509;-67
2022/09/30 01:09:34;;;;;;;2.85;1.15;;;2.90;99.90;;;;;;5070388;28;20431;-67
2022/09/30 01:12:16;;;;;;;2.80;1.30;;;2.80;99.90;;;;;;5069914;28;20488;-67
2022/09/30 01:14:44;;;;;;;1.17;1.08;;;2.80;99.90;;;;;;5069883;28;21116;-67
2022/09/30 01:17:36;;;;;;;1.80;0.85;;;2.90;99.90;;;;;;5070173;28;20522;-67
2022/09/30 01:20:33;;;;;;;0.93;0.93;;;2.90;99.90;;;;;;5070056;28;20424;-67
2022/09/30 01:23:21;;;;;;;1.00;0.95;;;2.80;99.90;;;;;;5069120;28;20423;-67
2022/09/30 01:26:21;;;;;;;1.67;1.00;;;2.70;99.90;;;;;;5070240;28;20427;-67
2022/09/30 01:28:47;;;;;;;0.65;0.60;;;2.60;99.90;;;;;;5069941;28;20423;-67
2022/09/30 01:31:48;;;;;;;1.38;0.80;;;2.70;99.90;;;;;;5070033;28;20902;-67
2022/09/30 01:34:59;;;;;;;0.60;0.60;;;2.80;99.90;;;;;;5069074;28;20446;-67
2022/09/30 01:38:00;;;;;;;0.80;0.80;;;2.70;99.90;;;;;;5069307;28;20910;-67
2022/09/30 01:40:40;;;;;;;1.40;0.75;;;2.60;99.90;;;;;;5070078;28;20423;-67
2022/09/30 01:43:39;;;;;;;0.73;0.73;;;2.60;99.90;;;;;;5069515;28;20424;-67
2022/09/30 01:46:36;;;;;;;0.90;0.90;;;2.70;99.90;;;;;;5069892;28;20435;-67
2022/09/30 01:49:40;;;;;;;1.00;1.00;;;2.80;99.90;;;;;;5069926;28;20428;-67
2022/09/30 01:52:33;;;;;;;0.60;0.60;;;3.10;99.90;;;;;;5069868;28;20450;-67
2022/09/30 01:55:19;;;;;;;1.08;0.90;;;3.30;99.90;;;;;;5069244;28;20435;-70
2022/09/30 01:57:55;;;;;;;0.77;0.77;;;3.30;99.90;;;;;;5069649;28;20484;-67
2022/09/30 02:00:23;;;;;;;0.63;0.63;;;3.30;99.90;;;;;;5068056;28;20485;-67
2022/09/30 02:03:08;;;;;;;0.75;0.75;;;3.40;99.90;;;;;;5069736;28;20828;-67
2022/09/30 02:05:42;;;;;;;0.77;0.77;;;3.40;99.90;;;;;;5068549;28;20427;-67
2022/09/30 02:08:15;;;;;;;0.82;0.82;;;3.40;99.90;;;;;;5069574;28;20828;-67
2022/09/30 02:10:56;;;;;;;0.90;0.90;;;3.50;99.90;;;;;;5069811;28;20444;-67
2022/09/30 02:13:34;;;;;;;2.03;0.98;;;3.60;99.90;;;;;;5069028;28;20438;-67
2022/09/30 02:16:13;;;;;;;0.82;0.82;;;3.70;99.90;;;;;;5069611;28;20746;-67
2022/09/30 02:19:09;;;;;;;1.33;1.27;;;3.60;99.90;;;;;;5068256;28;20526;-67
2022/09/30 02:21:39;;;;;;;0.80;0.80;;;3.50;99.90;;;;;;5068802;28;20427;-67
2022/09/30 02:24:10;;;;;;;0.90;0.90;;;3.30;99.90;;;;;;5067925;28;20454;-67
2022/09/30 02:26:47;;;;;;;1.02;1.02;;;3.20;99.90;;;;;;5069464;28;20462;-67
2022/09/30 02:29:26;;;;;;;0.77;0.77;;;3.10;99.90;;;;;;5069579;28;20435;-67
2022/09/30 02:31:59;;;;;;;1.02;0.93;;;3.00;99.90;;;;;;5069404;28;20442;-67
2022/09/30 02:34:42;;;;;;;0.40;0.40;;;3.00;99.90;;;;;;5067775;28;20480;-67
2022/09/30 02:37:37;;;;;;;0.43;0.43;;;3.00;99.90;;;;;;5069186;28;20436;-67
2022/09/30 02:40:20;;;;;;;0.60;0.60;;;3.00;99.90;;;;;;5069520;28;20605;-67
2022/09/30 02:42:48;;;;;;;0.60;0.60;;;2.90;99.90;;;;;;5069282;28;20908;-67
2022/09/30 02:45:18;;;;;;;0.80;0.80;;;2.90;99.90;;;;;;5068878;28;20428;-67
2022/09/30 02:48:04;;;;;;;0.77;0.77;;;2.80;99.90;;;;;;5072144;28;20945;-67
2022/09/30 02:50:34;;;;;;;0.90;0.80;;;2.70;99.90;;;;;;5073029;28;20434;-67
2022/09/30 02:53:20;;;;;;;3.10;1.00;;;2.60;99.90;;;;;;5072449;28;20449;-68
2022/09/30 02:56:10;;;;;;;0.60;0.60;;;2.60;99.90;;;;;;5072591;28;20431;-68
2022/09/30 02:58:39;;;;;;;0.40;0.40;;;2.50;99.90;;;;;;5071699;28;20427;-68
2022/09/30 03:01:08;;;;;;;1.02;0.82;;;2.50;99.90;;;;;;5072265;28;20455;-68
2022/09/30 03:03:55;;;;;;;0.50;0.50;;;2.60;99.90;;;;;;5072196;28;20457;-68
2022/09/30 03:06:22;;;;;;;0.70;0.70;;;2.60;99.90;;;;;;5072758;28;20481;-68
2022/09/30 03:08:52;;;;;;;1.40;0.77;;;2.60;99.90;;;;;;5072551;28;20426;-68
2022/09/30 03:11:25;;;;;;;0.43;0.43;;;2.70;99.90;;;;;;5072702;28;21047;-68
2022/09/30 03:14:07;;;;;;;1.13;0.82;;;2.90;99.90;;;;;;5072268;28;20435;-68
2022/09/30 03:17:02;;;;;;;0.47;0.47;;;3.00;99.90;;;;;;5072526;28;20938;-68
2022/09/30 03:20:03;;;;;;;0.55;0.55;;;2.90;99.90;;;;;;5072183;28;20435;-68
2022/09/30 03:22:43;;;;;;;1.08;0.90;;;3.00;99.90;;;;;;5072429;28;20428;-68
2022/09/30 03:25:37;;;;;;;0.98;0.88;;;3.10;99.90;;;;;;5071872;28;20932;-68
2022/09/30 03:28:18;;;;;;;1.17;1.07;;;3.10;99.90;;;;;;5072112;28;20433;-68
2022/09/30 03:31:04;;;;;;;0.90;0.90;;;3.20;99.90;;;;;;5072276;28;20427;-68
2022/09/30 03:33:53;;;;;;;1.00;1.00;;;3.30;99.90;;;;;;5070742;28;20436;-68
2022/09/30 03:36:49;;;;;;;0.70;0.70;;;3.40;99.90;;;;;;5072220;28;20428;-68
2022/09/30 03:39:38;;;;;;;0.93;0.67;;;3.40;99.90;;;;;;5072118;28;20506;-68
2022/09/30 03:42:26;;;;;;;1.00;1.00;;;3.30;99.90;;;;;;5070982;28;20645;-68
2022/09/30 03:45:08;;;;;;;0.60;0.60;;;3.20;99.90;;;;;;5071558;28;20427;-68
2022/09/30 03:47:41;;;;;;;0.80;0.80;;;3.10;99.90;;;;;;5070670;28;20431;-67
2022/09/30 03:50:14;;;;;;;0.60;0.60;;;3.00;99.90;;;;;;5070589;28;20423;-68
2022/09/30 03:52:41;;;;;;;0.40;0.40;;;2.90;99.90;;;;;;5071717;28;20439;-68
2022/09/30 03:55:10;;;;;;;0.40;0.40;;;3.20;99.90;;;;;;5071469;28;20489;-68
2022/09/30 03:57:39;;;;;;;0.93;0.93;;;3.50;99.90;;;;;;5070678;28;20463;-68
2022/09/30 04:00:07;;;;;;;1.33;1.33;;;3.60;99.90;;;;;;5071602;28;20428;-68
2022/09/30 04:02:36;;;;;;;1.55;0.80;;;3.70;99.90;;;;;;5070211;28;20423;-68
2022/09/30 04:05:04;;;;;;;0.43;0.43;;;3.80;99.90;;;;;;5069889;28;20544;-68
2022/09/30 04:07:31;;;;;;;0.85;0.80;;;3.80;99.90;;;;;;5071899;28;20512;-68
2022/09/30 04:09:58;;;;;;;0.80;0.80;;;3.80;99.90;;;;;;5071780;28;20432;-68
2022/09/30 04:12:39;;;;;;;1.00;0.70;;;3.70;99.90;;;;;;5070046;28;20898;-68
2022/09/30 04:15:06;;;;;;;0.90;0.90;;;3.70;99.90;;;;;;5071080;28;20443;-68
2022/09/30 04:17:32;;;;;;;0.70;0.70;;;3.60;99.90;;;;;;5071243;28;20439;-68
2022/09/30 04:19:59;;;;;;;0.82;0.82;;;3.60;99.90;;;;;;5071379;28;20901;-68
2022/09/30 04:22:28;;;;;;;1.58;1.25;;;3.60;99.90;;;;;;5071656;28;20419;-68
2022/09/30 04:24:55;;;;;;;1.05;0.73;;;3.60;99.90;;;;;;5070883;28;20427;-68
2022/09/30 04:27:25;;;;;;;0.70;0.70;;;3.60;99.90;;;;;;5071106;28;20431;-68
2022/09/30 04:29:52;;;;;;;1.00;0.85;;;3.60;99.90;;;;;;5070646;28;20431;-68
2022/09/30 04:32:21;;;;;;;0.75;0.70;;;3.60;99.90;;;;;;5071065;28;20434;-68
2022/09/30 04:34:47;;;;;;;1.48;1.08;;;3.60;99.90;;;;;;5054081;28;20482;-68
2022/09/30 04:37:14;;;;;;;0.68;0.68;;;3.40;99.90;;;;;;5051179;28;20444;-68
2022/09/30 04:39:41;;;;;;;0.80;0.80;;;3.20;99.90;;;;;;5051186;28;20422;-68
2022/09/30 04:42:10;;;;;;;0.63;0.63;;;3.10;99.90;;;;;;5051292;28;20475;-68
2022/09/30 04:44:36;;;;;;;0.90;0.90;;;2.90;99.90;;;;;;5050200;28;20453;-68
2022/09/30 04:47:03;;;;;;;0.80;0.80;;;2.80;99.90;;;;;;5051031;28;20491;-68
2022/09/30 04:49:30;;;;;;;0.63;0.63;;;2.70;99.90;;;;;;5051143;28;20520;-68
2022/09/30 04:51:56;;;;;;;0.82;0.82;;;2.60;99.90;;;;;;5050751;28;20919;-68
2022/09/30 04:54:23;;;;;;;0.93;0.65;;;2.60;99.90;;;;;;5050259;28;20440;-67
2022/09/30 04:56:50;;;;;;;0.77;0.77;;;2.50;99.90;;;;;;5050669;28;20452;-68
2022/09/30 04:59:17;;;;;;;1.02;1.02;;;2.50;99.90;;;;;;5050792;28;20440;-68
2022/09/30 05:01:44;;;;;;;0.70;0.70;;;2.50;99.90;;;;;;5050827;28;20452;-67
2022/09/30 05:04:15;;;;;;;0.43;0.43;;;2.40;99.90;;;;;;5050017;28;20425;-68
2022/09/30 05:06:41;;;;;;;0.90;0.90;;;2.30;99.90;;;;;;5050383;28;20433;-68
2022/09/30 05:09:09;;;;;;;2.28;1.05;;;2.20;99.90;;;;;;5049932;28;20425;-68
2022/09/30 05:11:41;;;;;;;1.30;1.20;;;2.20;99.90;;;;;;5049841;28;20468;-68
2022/09/30 05:14:08;;;;;;;1.35;1.10;;;2.20;99.90;;;;;;5050105;28;20417;-68
2022/09/30 05:16:36;;;;;;;0.80;0.73;;;2.30;99.90;;;;;;5056343;28;20431;-68
2022/09/30 05:19:03;;;;;;;0.90;0.90;;;2.30;99.90;;;;;;5068774;28;20435;-68
2022/09/30 05:21:29;;;;;;;1.13;0.73;;;2.30;99.90;;;;;;5070442;28;20423;-68
2022/09/30 05:23:57;;;;;;;0.60;0.60;;;2.20;99.90;;;;;;5069602;28;20522;-68
2022/09/30 05:26:24;;;;;;;1.75;0.75;;;2.30;99.90;;;;;;5070149;28;20488;-68
2022/09/30 05:28:50;;;;;;;0.68;0.68;;;2.30;99.90;;;;;;5069851;28;20432;-68
2022/09/30 05:31:19;;;;;;;0.52;0.52;;;2.30;99.90;;;;;;5069945;28;20428;-68
2022/09/30 05:33:46;;;;;;;0.93;0.93;;;2.30;99.90;;;;;;5069443;28;20434;-68
2022/09/30 05:36:15;;;;;;;0.50;0.50;;;2.30;99.90;;;;;;5070032;28;20431;-71
2022/09/30 05:38:41;;;;;;;0.77;0.75;;;2.30;99.90;;;;;;5069491;28;20428;-68
2022/09/30 05:41:11;;;;;;;1.42;0.73;;;2.40;99.90;;;;;;5069715;28;20801;-68
2022/09/30 05:43:40;;;;;;;1.00;0.90;;;2.60;99.90;;;;;;5069389;28;21092;-68
2022/09/30 05:46:07;;;;;;;0.80;0.80;;;2.60;99.90;;;;;;5070361;28;20427;-68
2022/09/30 05:48:34;;;;;;;0.60;0.53;;;2.80;99.90;;;;;;5068853;28;20995;-68
2022/09/30 05:51:01;;;;;;;0.90;0.90;;;2.80;99.90;;;;;;5068708;28;20435;-69
2022/09/30 05:53:30;;;;;;;0.73;0.73;;;2.90;99.90;;;;;;5068690;28;20932;-68
2022/09/30 05:55:59;;;;;;;0.60;0.60;;;3.00;99.90;;;;;;5068925;28;20427;-68
2022/09/30 05:58:30;;;;;;;0.60;0.60;;;3.00;99.90;;;;;;5069635;28;20427;-68
2022/09/30 06:00:56;;;;;;;1.40;1.15;;;3.00;99.90;;;;;;5070039;28;20561;-68
2022/09/30 06:03:31;;;;;;;0.90;0.90;;;3.10;99.90;;;;;;5069063;28;20513;-68
2022/09/30 06:05:57;;;;;;;0.82;0.82;;;3.10;99.90;;;;;;5069662;28;20918;-68
2022/09/30 06:08:27;;;;;;;0.90;0.90;;;3.20;99.90;;;;;;5069905;28;20473;-68
2022/09/30 06:10:53;;;;;;;0.50;0.50;;;3.30;99.90;;;;;;5069546;28;20443;-68
2022/09/30 06:13:21;;;;;;;1.67;0.75;;;3.40;99.90;;;;;;5069475;28;20435;-68
2022/09/30 06:16:00;;;;;;;1.00;1.00;;;3.50;99.90;;;;;;5069577;28;20955;-68
2022/09/30 06:18:29;;;;;;;0.70;0.70;;;3.80;99.90;;;;;;5069670;28;20514;-68
2022/09/30 06:20:57;;;;;;;0.98;0.98;;;4.00;99.90;;;;;;5070035;28;20427;-68
2022/09/30 06:23:25;;;;;;;3.05;0.88;;;4.30;99.90;;;;;;5071739;28;20424;-68
2022/09/30 06:25:53;;;;;;;0.90;0.90;;;;;;;;;;5073358;28;20449;-68
2022/09/30 06:28:20;;;;;;;1.20;1.10;;;;;;;;;;5073500;28;20496;-68
2022/09/30 06:30:47;;;;;;;5.40;2.92;;;;;;;;;;5065916;28;20483;-69
2022/09/30 06:33:15;;;;;;;4.97;2.38;;;;;;;;;;5053917;28;20440;-69
2022/09/30 06:35:46;;;;;;;1.58;1.48;;;;;;;;;;5053483;28;20436;-69
2022/09/30 06:38:16;;;;;;;0.70;0.70;;;;;;;;;;5053444;28;20433;-68
2022/09/30 06:40:49;;;;;;;2.20;1.10;;;;;;;;;;5053191;28;20433;-68
2022/09/30 06:43:17;;;;;;;1.17;1.08;;;;;;;;;;5052631;28;20433;-68
2022/09/30 06:45:50;;;;;;;1.10;1.10;;;;;;;;;;5051893;28;20432;-68
2022/09/30 06:48:17;;;;;;;1.17;1.17;;;;;;;;;;5053361;28;20421;-68
2022/09/30 06:50:59;;;;;;;3.85;1.80;;;;;;;;;;5052926;28;20436;-68
2022/09/30 06:53:28;;;;;;;1.17;1.17;;;;;;;;;;5052814;28;20451;-68
2022/09/30 06:55:56;;;;;;;1.42;1.02;;;;;;;;;;5052899;28;21075;-68
2022/09/30 06:58:23;;;;;;;1.70;1.60;;;;;;;;;;5052866;28;20791;-68
2022/09/30 07:01:01;;;;;;;1.30;1.30;;;4.80;99.90;;;;;;5052971;28;20425;-68
2022/09/30 07:03:29;;;;;;;2.92;1.55;;;;;;;;;;5052514;28;20425;-68
2022/09/30 07:05:58;;;;;;;2.03;1.83;;;9.00;99.90;;;;;;5052760;28;20432;-68
2022/09/30 07:08:31;;;;;;;1.98;1.88;;;9.50;99.90;;;;;;5052625;28;20436;-68
2022/09/30 07:10:59;;;;;;;1.55;1.50;;;9.90;99.90;;;;;;5052532;28;20504;-68
2022/09/30 07:13:25;;;;;;;1.87;1.40;;;10.00;99.90;;;;;;5052245;28;20429;-68
2022/09/30 07:15:55;;;;;;;1.63;1.52;;;;;;;;;;5052717;28;20448;-68
2022/09/30 07:18:23;;;;;;;2.07;1.97;;;10.20;99.90;;;;;;5052729;28;20433;-69
2022/09/30 07:20:51;;;;;;;1.70;1.60;;;10.70;99.90;;;;;;5052123;28;20432;-68
2022/09/30 07:23:22;;;;;;;1.70;1.60;;;;;;;;;;5052301;28;20436;-68
2022/09/30 07:25:54;;;;;;;2.07;1.73;;;;;;;;;;5052504;28;20519;-68
2022/09/30 07:28:21;;;;;;;1.70;1.60;;;;;;;;;;5052257;28;20444;-69
2022/09/30 07:30:49;;;;;;;1.40;1.40;;;;;;;;;;5052189;28;20441;-69
2022/09/30 07:33:16;;;;;;;1.80;1.70;;;;;;;;;;5050485;28;20516;-69
2022/09/30 07:35:51;;;;;;;1.77;1.67;;;;;;;;;;5052264;28;20433;-69
2022/09/30 07:38:19;;;;;;;4.13;1.77;;;;;;;;;;5052504;28;20464;-69
2022/09/30 07:40:59;;;;;;;1.53;1.43;;;;;;;;;;5052260;28;20433;-70
2022/09/30 07:43:33;;;;;;;2.15;1.30;;;;;;;;;;5051504;28;20516;-69
2022/09/30 07:46:14;;;;;;;1.90;1.20;;;;;;;;;;5051997;28;20433;-69
2022/09/30 07:51:14;;;;;;;1.63;1.52;;;;;;;;;;5056035;28;21165;-69
2022/09/30 07:53:42;;;;;;;1.48;1.45;;;;;;;;;;5071316;28;20912;-70
2022/09/30 07:56:10;;;;;;;1.33;1.23;;;;;;;;;;5071788;28;20427;-69
2022/09/30 07:58:37;;;;;;;1.27;1.17;;;;;;;;;;5071708;28;20781;-69
2022/09/30 08:01:08;;;;;;;1.20;1.20;;;;;;;;;;5071807;28;20481;-69
2022/09/30 08:03:39;;;;;;;1.45;1.35;;;;;;;;;;5071340;28;20987;-67
2022/09/30 08:06:10;;;;;;;1.23;1.23;;;;;;;;;;5071594;28;20425;-67
2022/09/30 08:08:37;;;;;;;1.60;1.50;;;10.80;99.90;;;;;;5071433;28;20489;-67
2022/09/30 08:11:05;;;;;;;1.55;1.45;;;13.70;99.90;;;;;;5071746;28;20439;-67
2022/09/30 08:13:35;;;;;;;1.70;1.33;;;;;;;;;;5070155;28;20435;-66
2022/09/30 08:16:05;;;;;;;1.35;1.30;;;;;;;;;;5071611;28;20434;-67
2022/09/30 08:18:32;;;;;;;1.27;1.17;;;;;;;;;;5071554;28;20434;-67
2022/09/30 08:21:03;;;;;;;0.90;0.90;;;;;;;;;;5071365;28;20428;-67
2022/09/30 08:23:34;;;;;;;1.60;1.50;;;;;;;;;;5069486;28;20969;-67
2022/09/30 08:26:05;;;;;;;1.02;1.02;;;;;;;;;;5070072;28;20432;-67
2022/09/30 08:28:34;;;;;;;1.33;1.23;;;;;;;;;;5070980;28;20507;-67
2022/09/30 08:31:06;;;;;;;1.00;1.00;;;;;;;;;;5071033;28;20451;-69
2022/09/30 08:33:41;;;;;;;1.25;1.17;;;;;;;;;;5070436;28;20518;-69
2022/09/30 08:36:08;;;;;;;1.70;1.30;;;;;;;;;;5071211;28;20446;-69
2022/09/30 08:38:38;;;;;;;1.20;1.20;;;;;;;;;;5071112;28;20457;-69
2022/09/30 08:41:11;;;;;;;1.17;1.17;;;;;;;;;;5070801;28;20431;-69
2022/09/30 08:43:39;;;;;;;1.17;1.17;;;;;;;;;;5070117;28;20506;-67
2022/09/30 08:46:14;;;;;;;2.38;1.08;;;;;;;;;;5070408;28;20415;-66
2022/09/30 08:48:53;;;;;;;0.73;0.73;;;;;;;;;;5070869;28;20435;-67
2022/09/30 08:51:28;;;;;;;1.50;1.27;;;;;;;;;;5070701;28;20910;-67
2022/09/30 08:53:57;;;;;;;1.33;1.23;;;;;;;;;;5070133;28;20427;-66
2022/09/30 08:56:31;;;;;;;1.20;1.10;;;;;;;;;;5070262;28;20450;-68
2022/09/30 08:59:18;;;;;;;1.23;0.75;;;;;;;;;;5069158;28;21042;-69
2022/09/30 09:01:47;;;;;;;2.05;1.38;;;;;;;;;;5070257;28;20454;-69
2022/09/30 09:04:15;;;;;;;0.82;0.82;;;;;;;;;;5069860;28;20518;-69
2022/09/30 09:07:07;;;;;;;0.70;0.70;;;13.90;99.90;;;;;;5070373;28;20786;-66
2022/09/30 09:10:00;;;;;;;1.00;1.00;;;15.60;99.90;;;;;;5070415;28;20952;-67
2022/09/30 09:12:54;;;;;;;0.75;0.68;;;16.00;99.90;;;;;;5007712;28;20432;-67
2022/09/30 09:15:41;;;;;;;1.40;1.17;;;15.90;99.90;;;;;;5007748;28;20432;-67
2022/09/30 09:18:39;;;;;;;2.23;1.27;;;15.80;99.90;;;;;;5007738;28;20440;-67
2022/09/30 09:21:20;;;;;;;0.73;0.73;;;15.80;99.90;;;;;;4999139;28;20923;-67
2022/09/30 09:23:49;;;;;;;0.90;0.90;;;15.80;99.90;;;;;;4990778;28;20434;-67
2022/09/30 09:26:17;;;;;;;1.08;1.08;;;15.90;99.90;;;;;;4992582;28;20776;-66
2022/09/30 09:29:00;;;;;;;0.75;0.75;;;16.30;99.90;;;;;;4991473;28;20424;-66
2022/09/30 09:31:27;;;;;;;0.80;0.80;;;16.50;99.90;;;;;;5007672;28;20491;-66
2022/09/30 09:34:00;;;;;;;0.75;0.75;;;16.60;99.90;;;;;;5007361;28;20436;-67
2022/09/30 09:36:36;;;;;;;1.33;0.90;;;16.70;99.90;;;;;;5007681;28;20432;-67
2022/09/30 09:39:25;;;;;;;0.70;0.70;;;16.70;99.90;;;;;;5007695;28;20463;-66
2022/09/30 09:42:21;;;;;;;0.65;0.65;;;17.00;99.90;;;;;;5007635;28;20472;-66
2022/09/30 09:45:16;;;;;;;2.13;0.80;;;17.10;99.90;;;;;;5007075;28;20934;-67
2022/09/30 09:47:46;;;;;;;1.40;1.30;;;17.30;99.90;;;;;;4991220;28;20436;-68
2022/09/30 09:50:22;;;;;;;0.90;0.90;;;17.20;99.90;;;;;;5060732;28;20434;-67
2022/09/30 09:53:20;;;;;;;0.80;0.80;;;17.00;99.90;;;;;;5068913;28;20817;-68
2022/09/30 09:55:48;;;;;;;0.60;0.60;;;17.10;99.90;;;;;;5069232;28;20462;-67
2022/09/30 09:58:16;;;;;;;0.80;0.80;;;;;;;;;;5069697;28;20423;-67
2022/09/30 10:03:23;;;;;;;0.80;0.80;;;18.70;99.90;;;;;;5069293;28;20431;-67
2022/09/30 10:06:07;;;;;;;1.17;0.90;;;18.80;99.90;;;;;;5070283;28;20797;-68
2022/09/30 10:08:51;;;;;;;0.68;0.68;;;18.80;99.90;;;;;;5069892;28;20514;-67
2022/09/30 10:11:21;;;;;;;0.90;0.80;;;19.10;99.90;;;;;;5068469;28;20428;-67
2022/09/30 10:13:50;;;;;;;0.80;0.70;;;19.10;99.90;;;;;;5069150;28;20435;-67
2022/09/30 10:16:36;;;;;;;0.80;0.80;;;18.80;99.90;;;;;;5069822;28;20478;-67
2022/09/30 10:19:15;;;;;;;0.70;0.70;;;19.20;99.90;;;;;;5068574;28;20439;-67
2022/09/30 10:21:42;;;;;;;0.80;0.80;;;19.50;99.90;;;;;;5069702;28;20419;-67
2022/09/30 10:24:30;;;;;;;1.20;0.70;;;20.10;99.90;;;;;;5068852;28;20431;-67
2022/09/30 10:26:56;;;;;;;1.48;0.82;;;20.20;99.90;;;;;;5049500;28;20425;-68
2022/09/30 10:29:32;;;;;;;0.88;0.88;;;19.50;99.90;;;;;;5049322;28;20433;-67
2022/09/30 10:32:01;;;;;;;0.63;0.63;;;19.70;99.90;;;;;;5062518;28;20439;-67
2022/09/30 10:34:42;;;;;;;0.63;0.63;;;20.00;99.90;;;;;;5068838;28;20464;-67
2022/09/30 10:37:15;;;;;;;0.70;0.70;;;20.10;99.90;;;;;;5069478;28;20435;-67
2022/09/30 10:39:43;;;;;;;0.80;0.80;;;19.70;99.90;;;;;;5069658;28;20428;-67
2022/09/30 10:42:10;;;;;;;0.70;0.60;;;19.90;99.90;;;;;;5069562;28;20428;-67
2022/09/30 10:44:50;;;;;;;0.50;0.50;;;20.10;99.90;;;;;;5068591;28;20522;-67
2022/09/30 10:47:20;;;;;;;0.50;0.50;;;19.50;99.90;;;;;;5069535;28;20489;-67
2022/09/30 10:50:19;;;;;;;0.70;0.70;;;19.60;99.90;;;;;;5069428;28;20432;-67
2022/09/30 10:52:54;;;;;;;0.60;0.60;;;20.10;99.90;;;;;;5066186;28;20528;-67
2022/09/30 10:55:28;;;;;;;0.57;0.57;;;20.20;99.90;;;;;;5066450;28;20438;-67
2022/09/30 10:57:59;;;;;;;0.52;0.52;;;20.40;99.90;;;;;;5066484;28;20423;-67
2022/09/30 11:00:28;;;;;;;0.70;0.70;;;20.50;99.90;;;;;;5039369;28;20429;-67
2022/09/30 11:03:12;;;;;;;0.60;0.60;;;20.30;99.90;;;;;;5046302;28;20588;-67
2022/09/30 11:05:43;;;;;;;0.60;0.60;;;20.40;99.90;;;;;;5046610;28;20512;-68
2022/09/30 11:08:18;;;;;;;0.70;0.70;;;21.00;99.90;;;;;;5048467;28;20490;-67
2022/09/30 11:10:49;;;;;;;0.68;0.68;;;21.40;99.90;;;;;;5050274;28;20425;-67
2022/09/30 11:13:21;;;;;;;0.80;0.80;;;20.70;99.90;;;;;;5049546;28;20882;-67
2022/09/30 11:16:10;;;;;;;0.50;0.50;;;20.90;99.90;;;;;;5049766;28;21074;-66
2022/09/30 11:18:42;;;;;;;0.70;0.70;;;21.30;99.90;;;;;;5049609;28;20440;-67
2022/09/30 11:21:18;;;;;;;0.70;0.70;;;21.60;99.90;;;;;;5049710;28;20429;-66
2022/09/30 11:23:59;;;;;;;0.60;0.60;;;21.80;99.90;;;;;;5048894;28;21225;-67
2022/09/30 11:26:38;;;;;;;0.60;0.60;;;21.50;99.90;;;;;;5049902;28;20425;-66
2022/09/30 11:29:26;;;;;;;1.38;0.60;;;21.80;99.90;;;;;;5058989;28;20431;-66
2022/09/30 11:32:05;;;;;;;0.52;0.52;;;22.20;99.90;;;;;;5072389;28;20481;-67
2022/09/30 11:34:47;;;;;;;0.50;0.50;;;22.20;99.90;;;;;;5071134;28;20477;-66
2022/09/30 11:37:35;;;;;;;0.70;0.70;;;22.20;99.90;;;;;;5072487;28;20424;-67
2022/09/30 11:40:31;;;;;;;1.23;0.60;;;22.00;99.90;;;;;;5070857;28;20846;-66
2022/09/30 11:43:21;;;;;;;0.40;0.40;;;22.20;99.90;;;;;;4998996;28;20436;-66
2022/09/30 11:45:54;;;;;;;0.52;0.52;;;22.10;99.90;;;;;;5071624;28;20472;-67
2022/09/30 11:48:48;;;;;;;0.47;0.47;;;22.30;99.90;;;;;;5071672;28;20897;-67
2022/09/30 11:51:32;;;;;;;0.60;0.60;;;22.40;99.90;;;;;;5071762;28;20424;-66
2022/09/30 11:54:29;;;;;;;0.53;0.53;;;21.40;99.90;;;;;;5071775;28;20431;-67
2022/09/30 11:57:06;;;;;;;0.70;0.70;;;21.40;99.90;;;;;;5072288;28;20441;-67
2022/09/30 11:59:42;;;;;;;1.08;0.93;;;20.80;99.90;;;;;;5069053;28;20940;-67
2022/09/30 12:02:29;;;;;;;1.10;0.60;;;20.80;99.90;;;;;;5070351;28;20423;-68
2022/09/30 12:04:58;;;;;;;0.88;0.88;;;;;;;;;;5070509;28;20427;-67
2022/09/30 12:07:42;;;;;;;0.68;0.68;;;20.90;99.90;;;;;;5070600;28;20921;-66
2022/09/30 12:10:31;;;;;;;1.10;0.60;;;20.30;99.90;;;;;;5071259;28;20901;-66
2022/09/30 12:13:09;;;;;;;0.70;0.70;;;19.90;99.90;;;;;;5071164;28;20438;-67
2022/09/30 12:15:36;;;;;;;0.50;0.50;;;19.90;99.90;;;;;;5071631;28;20431;-67
2022/09/30 12:18:09;;;;;;;0.45;0.45;;;20.30;99.90;;;;;;5071254;28;20444;-67
2022/09/30 12:20:38;;;;;;;0.40;0.40;;;20.40;99.90;;;;;;5070492;28;21063;-67
2022/09/30 12:23:05;;;;;;;1.10;0.50;;;20.90;99.90;;;;;;5070775;28;20943;-67
2022/09/30 12:25:39;;;;;;;0.50;0.50;;;20.80;99.90;;;;;;5071465;28;20434;-67
2022/09/30 12:30:15;;;;;;;0.70;0.70;;;20.40;99.90;;;;;;5071234;28;20430;-67
2022/09/30 12:31:19;;;;;;;0.55;0.55;;;20.30;99.90;;;;;;5071147;28;20423;-67
2022/09/30 12:34:05;;;;;;;0.40;0.40;;;20.10;99.90;;;;;;5069333;28;20463;-67
2022/09/30 12:36:38;;;;;;;0.70;0.70;;;20.70;99.90;;;;;;5070962;28;20435;-67
2022/09/30 12:39:38;;;;;;;0.70;0.70;;;20.80;99.90;;;;;;5070869;28;20432;-67
2022/09/30 12:42:48;;;;;;;0.50;0.50;;;20.60;99.90;;;;;;5071230;28;20427;-66
2022/09/30 12:45:30;;;;;;;0.40;0.40;;;21.10;99.90;;;;;;5027536;28;20929;-67
2022/09/30 12:48:07;;;;;;;0.50;0.50;;;21.50;99.90;;;;;;5027846;28;20557;-67
2022/09/30 12:50:56;;;;;;;0.45;0.45;;;21.30;99.90;;;;;;5028042;28;20438;-66
2022/09/30 12:53:32;;;;;;;0.45;0.45;;;20.50;99.90;;;;;;5027522;28;20443;-67
2022/09/30 12:56:10;;;;;;;0.40;0.40;;;20.70;99.90;;;;;;5027991;28;20845;-67
2022/09/30 12:58:42;;;;;;;0.52;0.52;;;21.20;99.90;;;;;;5028147;28;20592;-67
2022/09/30 13:01:27;;;;;;;0.40;0.40;;;20.80;99.90;;;;;;5011079;28;20423;-67
2022/09/30 13:04:00;;;;;;;0.40;0.40;;;21.00;99.90;;;;;;5027626;28;20485;-67
2022/09/30 13:06:43;;;;;;;0.50;0.50;;;21.20;99.90;;;;;;5026576;28;21116;-67
2022/09/30 13:09:28;;;;;;;0.50;0.50;;;21.60;99.90;;;;;;5027513;28;20473;-67
2022/09/30 13:11:58;;;;;;;0.40;0.40;;;21.70;99.90;;;;;;5027721;28;20437;-67
2022/09/30 13:14:38;;;;;;;0.40;0.40;;;22.00;99.90;;;;;;5010876;28;20431;-67
2022/09/30 13:17:07;;;;;;;0.40;0.40;;;22.20;99.90;;;;;;5027347;28;20976;-68
2022/09/30 13:19:51;;;;;;;0.55;0.52;;;22.10;99.90;;;;;;5055273;28;20423;-67
2022/09/30 13:24:57;;;;;;;0.40;0.40;;;22.20;99.90;;;;;;5069890;28;20427;-68
2022/09/30 13:27:38;;;;;;;0.33;0.33;;;22.30;99.90;;;;;;5069892;28;20429;-67
2022/09/30 13:30:14;;;;;;;0.40;0.40;;;22.70;99.90;;;;;;5070320;28;20428;-67
2022/09/30 13:32:56;;;;;;;0.60;0.60;;;23.30;99.90;;;;;;5070185;28;20435;-67
2022/09/30 13:35:42;;;;;;;0.43;0.43;;;23.80;99.90;;;;;;5070230;28;20432;-67
2022/09/30 13:38:32;;;;;;;0.55;0.55;;;23.90;99.90;;;;;;5070056;28;20924;-67
2022/09/30 13:41:08;;;;;;;0.50;0.50;;;23.60;99.90;;;;;;5069859;28;20471;-67
2022/09/30 13:44:02;;;;;;;0.50;0.50;;;23.90;99.90;;;;;;5069644;28;20477;-67
2022/09/30 13:46:41;;;;;;;0.30;0.30;;;23.90;99.90;;;;;;5069821;28;20782;-68
2022/09/30 13:49:13;;;;;;;0.40;0.40;;;23.70;99.90;;;;;;5069966;28;20420;-67
2022/09/30 13:51:41;;;;;;;0.40;0.40;;;23.80;99.90;;;;;;5069843;28;20963;-68
2022/09/30 13:54:32;;;;;;;0.90;0.40;;;23.30;99.90;;;;;;5069587;28;20427;-68
2022/09/30 13:57:02;;;;;;;0.43;0.43;;;22.30;99.90;;;;;;5069653;28;20416;-68
2022/09/30 13:59:52;;;;;;;0.45;0.45;;;20.60;99.90;;;;;;5069562;28;20786;-68
2022/09/30 14:02:38;;;;;;;0.40;0.40;;;20.10;99.90;;;;;;5069501;28;20428;-68
2022/09/30 14:05:19;;;;;;;0.38;0.38;;;20.60;99.90;;;;;;5068760;28;20913;-68
2022/09/30 14:07:59;;;;;;;0.40;0.40;;;20.50;99.90;;;;;;5069518;28;20485;-68
2022/09/30 14:10:55;;;;;;;1.00;0.55;;;21.40;99.90;;;;;;5070182;28;20431;-68